sensor_id;sensor_type;location;lat;lon;timestamp;temperature;humidity
15452;DHT22;7827;53.594;9.938;2022-10-16T00:01:44;14.40;99.90
15452;DHT22;7827;53.594;9.938;2022-10-16T00:04:14;14.40;99.90
15452;DHT22;7827;53.594;9.938;2022-10-16T00:06:44;14.40;99.90
15452;DHT22;7827;53.594;9.938;2022-10-16T00:09:13;14.50;99.90
15452;DHT22;7827;53.594;9.938;2022-10-16T00:11:41;14.40;99.90
15452;DHT22;7827;53.594;9.938;2022-10-16T00:14:12;14.40;99.90
15452;DHT22;7827;53.594;9.938;2022-10-16T00:16:42;14.40;99.90
15452;DHT22;7827;53.594;9.938;2022-10-16T00:19:11;14.40;99.90
15452;DHT22;7827;53.594;9.938;2022-10-16T00:21:39;14.30;99.90
15452;DHT22;7827;53.594;9.938;2022-10-16T00:24:28;14.40;99.90
15452;DHT22;7827;53.594;9.938;2022-10-16T00:26:56;14.30;99.90
15452;DHT22;7827;53.594;9.938;2022-10-16T00:29:25;14.30;99.90
15452;DHT22;7827;53.594;9.938;2022-10-16T00:31:53;14.30;99.90
15452;DHT22;7827;53.594;9.938;2022-10-16T00:34:21;14.30;99.90
15452;DHT22;7827;53.594;9.938;2022-10-16T00:36:50;14.30;99.90
15452;DHT22;7827;53.594;9.938;2022-10-16T00:39:18;14.30;99.90
15452;DHT22;7827;53.594;9.938;2022-10-16T00:41:48;14.40;99.90
15452;DHT22;7827;53.594;9.938;2022-10-16T00:44:45;14.30;99.90
15452;DHT22;7827;53.594;9.938;2022-10-16T00:47:21;14.40;99.90
15452;DHT22;7827;53.594;9.938;2022-10-16T00:49:59;14.40;99.90
15452;DHT22;7827;53.594;9.938;2022-10-16T00:52:32;14.30;99.90
15452;DHT22;7827;53.594;9.938;2022-10-16T00:55:02;14.30;99.90
15452;DHT22;7827;53.594;9.938;2022-10-16T00:57:33;14.30;99.90
15452;DHT22;7827;53.594;9.938;2022-10-16T01:00:04;14.40;99.90
15452;DHT22;7827;53.594;9.938;2022-10-16T01:02:34;14.40;99.90
15452;DHT22;7827;53.594;9.938;2022-10-16T01:05:03;14.40;99.90
15452;DHT22;7827;53.594;9.938;2022-10-16T01:07:40;14.40;99.90
15452;DHT22;7827;53.594;9.938;2022-10-16T01:10:25;14.30;99.90
15452;DHT22;7827;53.594;9.938;2022-10-16T01:13:03;14.40;99.90
15452;DHT22;7827;53.594;9.938;2022-10-16T01:15:40;14.40;99.90
15452;DHT22;7827;53.594;9.938;2022-10-16T01:18:14;14.40;99.90
15452;DHT22;7827;53.594;9.938;2022-10-16T01:20:50;14.40;99.90
15452;DHT22;7827;53.594;9.938;2022-10-16T01:23:31;14.30;99.90
15452;DHT22;7827;53.594;9.938;2022-10-16T01:26:22;14.30;99.90
15452;DHT22;7827;53.594;9.938;2022-10-16T01:29:03;14.20;99.90
15452;DHT22;7827;53.594;9.938;2022-10-16T01:31:39;14.20;99.90
15452;DHT22;7827;53.594;9.938;2022-10-16T01:34:15;14.20;99.90
15452;DHT22;7827;53.594;9.938;2022-10-16T01:36:49;14.20;99.90
15452;DHT22;7827;53.594;9.938;2022-10-16T01:39:24;14.10;99.90
15452;DHT22;7827;53.594;9.938;2022-10-16T01:42:00;14.10;99.90
15452;DHT22;7827;53.594;9.938;2022-10-16T01:44:34;14.10;99.90
15452;DHT22;7827;53.594;9.938;2022-10-16T01:47:04;14.10;99.90
15452;DHT22;7827;53.594;9.938;2022-10-16T01:49:36;14.00;99.90
15452;DHT22;7827;53.594;9.938;2022-10-16T01:52:10;14.00;99.90
15452;DHT22;7827;53.594;9.938;2022-10-16T01:54:43;14.00;99.90
15452;DHT22;7827;53.594;9.938;2022-10-16T01:57:29;14.00;99.90
15452;DHT22;7827;53.594;9.938;2022-10-16T02:00:09;13.90;99.90
15452;DHT22;7827;53.594;9.938;2022-10-16T02:02:41;13.90;99.90
15452;DHT22;7827;53.594;9.938;2022-10-16T02:05:16;13.80;99.90
15452;DHT22;7827;53.594;9.938;2022-10-16T02:07:50;13.80;99.90
15452;DHT22;7827;53.594;9.938;2022-10-16T02:10:18;13.80;99.90
15452;DHT22;7827;53.594;9.938;2022-10-16T02:12:50;13.80;99.90
15452;DHT22;7827;53.594;9.938;2022-10-16T02:15:25;13.80;99.90
15452;DHT22;7827;53.594;9.938;2022-10-16T02:17:53;13.80;99.90
15452;DHT22;7827;53.594;9.938;2022-10-16T02:20:26;13.80;99.90
15452;DHT22;7827;53.594;9.938;2022-10-16T02:22:58;13.80;99.90
15452;DHT22;7827;53.594;9.938;2022-10-16T02:25:30;13.80;99.90
15452;DHT22;7827;53.594;9.938;2022-10-16T02:28:06;13.80;99.90
15452;DHT22;7827;53.594;9.938;2022-10-16T02:30:39;13.70;99.90
15452;DHT22;7827;53.594;9.938;2022-10-16T02:33:12;13.70;99.90
15452;DHT22;7827;53.594;9.938;2022-10-16T02:35:44;13.70;99.90
15452;DHT22;7827;53.594;9.938;2022-10-16T02:38:15;13.70;99.90
15452;DHT22;7827;53.594;9.938;2022-10-16T02:40:44;13.60;99.90
15452;DHT22;7827;53.594;9.938;2022-10-16T02:43:13;13.70;99.90
15452;DHT22;7827;53.594;9.938;2022-10-16T02:45:43;13.60;99.90
15452;DHT22;7827;53.594;9.938;2022-10-16T02:48:11;13.60;99.90
15452;DHT22;7827;53.594;9.938;2022-10-16T02:50:39;13.50;99.90
15452;DHT22;7827;53.594;9.938;2022-10-16T02:53:08;13.50;99.90
15452;DHT22;7827;53.594;9.938;2022-10-16T02:55:36;13.50;99.90
15452;DHT22;7827;53.594;9.938;2022-10-16T02:58:04;13.50;99.90
15452;DHT22;7827;53.594;9.938;2022-10-16T03:00:32;13.50;99.90
15452;DHT22;7827;53.594;9.938;2022-10-16T03:03:02;13.40;99.90
15452;DHT22;7827;53.594;9.938;2022-10-16T03:05:30;13.40;99.90
15452;DHT22;7827;53.594;9.938;2022-10-16T03:07:58;13.40;99.90
15452;DHT22;7827;53.594;9.938;2022-10-16T03:10:27;13.40;99.90
15452;DHT22;7827;53.594;9.938;2022-10-16T03:12:55;13.40;99.90
15452;DHT22;7827;53.594;9.938;2022-10-16T03:15:24;13.40;99.90
15452;DHT22;7827;53.594;9.938;2022-10-16T03:17:52;13.40;99.90
15452;DHT22;7827;53.594;9.938;2022-10-16T03:20:22;13.40;99.90
15452;DHT22;7827;53.594;9.938;2022-10-16T03:22:50;13.40;99.90
15452;DHT22;7827;53.594;9.938;2022-10-16T03:25:18;13.30;99.90
15452;DHT22;7827;53.594;9.938;2022-10-16T03:27:46;13.30;99.90
15452;DHT22;7827;53.594;9.938;2022-10-16T03:30:14;13.30;99.90
15452;DHT22;7827;53.594;9.938;2022-10-16T03:32:44;13.20;99.90
15452;DHT22;7827;53.594;9.938;2022-10-16T03:35:12;13.20;99.90
15452;DHT22;7827;53.594;9.938;2022-10-16T03:37:42;13.20;99.90
15452;DHT22;7827;53.594;9.938;2022-10-16T03:40:10;13.20;99.90
15452;DHT22;7827;53.594;9.938;2022-10-16T03:42:39;13.30;99.90
15452;DHT22;7827;53.594;9.938;2022-10-16T03:45:08;13.30;99.90
15452;DHT22;7827;53.594;9.938;2022-10-16T03:47:37;13.20;99.90
15452;DHT22;7827;53.594;9.938;2022-10-16T03:50:06;13.20;99.90
15452;DHT22;7827;53.594;9.938;2022-10-16T03:52:35;13.20;99.90
15452;DHT22;7827;53.594;9.938;2022-10-16T03:55:05;13.30;99.90
15452;DHT22;7827;53.594;9.938;2022-10-16T03:57:34;13.30;99.90
15452;DHT22;7827;53.594;9.938;2022-10-16T04:00:03;13.20;99.90
15452;DHT22;7827;53.594;9.938;2022-10-16T04:02:38;13.20;99.90
15452;DHT22;7827;53.594;9.938;2022-10-16T04:05:06;13.20;99.90
15452;DHT22;7827;53.594;9.938;2022-10-16T04:07:35;13.20;99.90
15452;DHT22;7827;53.594;9.938;2022-10-16T04:10:06;13.20;99.90
15452;DHT22;7827;53.594;9.938;2022-10-16T04:12:35;13.20;99.90
15452;DHT22;7827;53.594;9.938;2022-10-16T04:15:03;13.10;99.90
15452;DHT22;7827;53.594;9.938;2022-10-16T04:17:32;13.20;99.90
15452;DHT22;7827;53.594;9.938;2022-10-16T04:20:00;13.10;99.90
15452;DHT22;7827;53.594;9.938;2022-10-16T04:22:28;13.10;99.90
15452;DHT22;7827;53.594;9.938;2022-10-16T04:24:56;13.20;99.90
15452;DHT22;7827;53.594;9.938;2022-10-16T04:27:26;13.20;99.90
15452;DHT22;7827;53.594;9.938;2022-10-16T04:29:56;13.20;99.90
15452;DHT22;7827;53.594;9.938;2022-10-16T04:32:24;13.10;99.90
15452;DHT22;7827;53.594;9.938;2022-10-16T04:34:53;13.10;99.90
15452;DHT22;7827;53.594;9.938;2022-10-16T04:37:23;13.10;99.90
15452;DHT22;7827;53.594;9.938;2022-10-16T04:39:53;13.10;99.90
15452;DHT22;7827;53.594;9.938;2022-10-16T04:42:22;13.10;99.90
15452;DHT22;7827;53.594;9.938;2022-10-16T04:44:51;13.00;99.90
15452;DHT22;7827;53.594;9.938;2022-10-16T04:47:20;13.00;99.90
15452;DHT22;7827;53.594;9.938;2022-10-16T04:49:48;13.10;99.90
15452;DHT22;7827;53.594;9.938;2022-10-16T04:52:16;13.10;99.90
15452;DHT22;7827;53.594;9.938;2022-10-16T04:54:45;13.10;99.90
15452;DHT22;7827;53.594;9.938;2022-10-16T04:57:13;13.00;99.90
15452;DHT22;7827;53.594;9.938;2022-10-16T04:59:42;13.10;99.90
15452;DHT22;7827;53.594;9.938;2022-10-16T05:02:11;13.00;99.90
15452;DHT22;7827;53.594;9.938;2022-10-16T05:04:39;13.00;99.90
15452;DHT22;7827;53.594;9.938;2022-10-16T05:07:07;13.00;99.90
15452;DHT22;7827;53.594;9.938;2022-10-16T05:09:35;13.00;99.90
15452;DHT22;7827;53.594;9.938;2022-10-16T05:12:03;13.00;99.90
15452;DHT22;7827;53.594;9.938;2022-10-16T05:14:32;13.00;99.90
15452;DHT22;7827;53.594;9.938;2022-10-16T05:17:00;13.00;99.90
15452;DHT22;7827;53.594;9.938;2022-10-16T05:19:29;13.00;99.90
15452;DHT22;7827;53.594;9.938;2022-10-16T05:21:57;13.00;99.90
15452;DHT22;7827;53.594;9.938;2022-10-16T05:24:26;13.00;99.90
15452;DHT22;7827;53.594;9.938;2022-10-16T05:26:54;13.10;99.90
15452;DHT22;7827;53.594;9.938;2022-10-16T05:29:23;13.10;99.90
15452;DHT22;7827;53.594;9.938;2022-10-16T05:31:52;13.10;99.90
15452;DHT22;7827;53.594;9.938;2022-10-16T05:34:21;13.10;99.90
15452;DHT22;7827;53.594;9.938;2022-10-16T05:36:51;13.00;99.90
15452;DHT22;7827;53.594;9.938;2022-10-16T05:39:19;13.00;99.90
15452;DHT22;7827;53.594;9.938;2022-10-16T05:41:49;13.00;99.90
15452;DHT22;7827;53.594;9.938;2022-10-16T05:44:18;13.00;99.90
15452;DHT22;7827;53.594;9.938;2022-10-16T05:46:47;13.10;99.90
15452;DHT22;7827;53.594;9.938;2022-10-16T05:49:15;13.10;99.90
15452;DHT22;7827;53.594;9.938;2022-10-16T05:51:44;13.10;99.90
15452;DHT22;7827;53.594;9.938;2022-10-16T05:54:13;13.10;99.90
15452;DHT22;7827;53.594;9.938;2022-10-16T05:56:42;13.10;99.90
15452;DHT22;7827;53.594;9.938;2022-10-16T05:59:10;13.10;99.90
15452;DHT22;7827;53.594;9.938;2022-10-16T06:01:39;13.20;99.90
15452;DHT22;7827;53.594;9.938;2022-10-16T06:04:08;13.20;99.90
15452;DHT22;7827;53.594;9.938;2022-10-16T06:06:37;13.20;99.90
15452;DHT22;7827;53.594;9.938;2022-10-16T06:09:05;13.20;99.90
15452;DHT22;7827;53.594;9.938;2022-10-16T06:11:36;13.30;99.90
15452;DHT22;7827;53.594;9.938;2022-10-16T06:14:04;13.30;99.90
15452;DHT22;7827;53.594;9.938;2022-10-16T06:16:35;13.30;99.90
15452;DHT22;7827;53.594;9.938;2022-10-16T06:19:04;13.40;99.90
15452;DHT22;7827;53.594;9.938;2022-10-16T06:21:34;13.40;99.90
15452;DHT22;7827;53.594;9.938;2022-10-16T06:24:03;13.40;99.90
15452;DHT22;7827;53.594;9.938;2022-10-16T06:26:31;13.40;99.90
15452;DHT22;7827;53.594;9.938;2022-10-16T06:29:01;13.40;99.90
15452;DHT22;7827;53.594;9.938;2022-10-16T06:31:30;13.50;99.90
15452;DHT22;7827;53.594;9.938;2022-10-16T06:34:00;13.50;99.90
15452;DHT22;7827;53.594;9.938;2022-10-16T06:36:31;13.50;99.90
15452;DHT22;7827;53.594;9.938;2022-10-16T06:38:59;13.50;99.90
15452;DHT22;7827;53.594;9.938;2022-10-16T06:41:28;13.50;99.90
15452;DHT22;7827;53.594;9.938;2022-10-16T06:43:57;13.60;99.90
15452;DHT22;7827;53.594;9.938;2022-10-16T06:46:27;13.60;99.90
15452;DHT22;7827;53.594;9.938;2022-10-16T06:48:55;13.60;99.90
15452;DHT22;7827;53.594;9.938;2022-10-16T06:51:24;13.60;99.90
15452;DHT22;7827;53.594;9.938;2022-10-16T06:53:54;13.70;99.90
15452;DHT22;7827;53.594;9.938;2022-10-16T06:56:30;13.70;99.90
15452;DHT22;7827;53.594;9.938;2022-10-16T06:59:00;13.80;99.90
15452;DHT22;7827;53.594;9.938;2022-10-16T07:01:30;13.90;99.90
15452;DHT22;7827;53.594;9.938;2022-10-16T07:04:00;14.00;99.90
15452;DHT22;7827;53.594;9.938;2022-10-16T07:06:32;14.10;99.90
15452;DHT22;7827;53.594;9.938;2022-10-16T07:09:04;14.20;99.90
15452;DHT22;7827;53.594;9.938;2022-10-16T07:11:33;14.30;99.90
15452;DHT22;7827;53.594;9.938;2022-10-16T07:14:02;14.30;99.90
15452;DHT22;7827;53.594;9.938;2022-10-16T07:16:33;14.40;99.90
15452;DHT22;7827;53.594;9.938;2022-10-16T07:19:02;14.50;99.90
15452;DHT22;7827;53.594;9.938;2022-10-16T07:21:32;14.50;99.90
15452;DHT22;7827;53.594;9.938;2022-10-16T07:24:05;14.50;99.90
15452;DHT22;7827;53.594;9.938;2022-10-16T07:26:36;14.60;99.90
15452;DHT22;7827;53.594;9.938;2022-10-16T07:29:06;14.50;99.90
15452;DHT22;7827;53.594;9.938;2022-10-16T07:31:36;14.50;99.90
15452;DHT22;7827;53.594;9.938;2022-10-16T07:34:05;14.50;99.90
15452;DHT22;7827;53.594;9.938;2022-10-16T07:36:34;14.40;99.90
15452;DHT22;7827;53.594;9.938;2022-10-16T07:39:02;14.50;99.90
15452;DHT22;7827;53.594;9.938;2022-10-16T07:41:31;14.60;99.90
15452;DHT22;7827;53.594;9.938;2022-10-16T07:44:04;14.60;99.90
15452;DHT22;7827;53.594;9.938;2022-10-16T07:46:32;14.70;99.90
15452;DHT22;7827;53.594;9.938;2022-10-16T07:49:03;14.80;99.90
15452;DHT22;7827;53.594;9.938;2022-10-16T07:51:32;14.80;99.90
15452;DHT22;7827;53.594;9.938;2022-10-16T07:54:00;14.90;99.90
15452;DHT22;7827;53.594;9.938;2022-10-16T07:56:30;14.90;99.90
15452;DHT22;7827;53.594;9.938;2022-10-16T07:58:59;14.90;99.90
15452;DHT22;7827;53.594;9.938;2022-10-16T08:01:27;14.90;99.90
15452;DHT22;7827;53.594;9.938;2022-10-16T08:03:55;14.90;99.90
15452;DHT22;7827;53.594;9.938;2022-10-16T08:06:25;14.80;99.90
15452;DHT22;7827;53.594;9.938;2022-10-16T08:08:54;14.80;99.90
15452;DHT22;7827;53.594;9.938;2022-10-16T08:11:23;14.80;99.90
15452;DHT22;7827;53.594;9.938;2022-10-16T08:13:52;14.70;99.90
15452;DHT22;7827;53.594;9.938;2022-10-16T08:16:21;14.70;99.90
15452;DHT22;7827;53.594;9.938;2022-10-16T08:18:49;14.70;99.90
15452;DHT22;7827;53.594;9.938;2022-10-16T08:21:20;14.70;99.90
15452;DHT22;7827;53.594;9.938;2022-10-16T08:23:52;14.80;99.90
15452;DHT22;7827;53.594;9.938;2022-10-16T08:26:25;14.90;99.90
15452;DHT22;7827;53.594;9.938;2022-10-16T08:28:55;15.00;99.90
15452;DHT22;7827;53.594;9.938;2022-10-16T08:31:23;15.10;99.90
15452;DHT22;7827;53.594;9.938;2022-10-16T08:33:53;15.20;99.90
15452;DHT22;7827;53.594;9.938;2022-10-16T08:36:21;15.20;99.90
15452;DHT22;7827;53.594;9.938;2022-10-16T08:38:51;15.30;99.90
15452;DHT22;7827;53.594;9.938;2022-10-16T08:41:53;15.30;99.90
15452;DHT22;7827;53.594;9.938;2022-10-16T08:48:00;15.40;99.90
15452;DHT22;7827;53.594;9.938;2022-10-16T08:50:38;15.50;99.90
15452;DHT22;7827;53.594;9.938;2022-10-16T08:53:11;15.60;99.90
15452;DHT22;7827;53.594;9.938;2022-10-16T08:55:46;15.80;99.90
15452;DHT22;7827;53.594;9.938;2022-10-16T08:58:19;15.80;99.90
15452;DHT22;7827;53.594;9.938;2022-10-16T09:00:50;15.90;99.90
15452;DHT22;7827;53.594;9.938;2022-10-16T09:03:29;16.00;99.90
15452;DHT22;7827;53.594;9.938;2022-10-16T09:06:17;16.10;99.90
15452;DHT22;7827;53.594;9.938;2022-10-16T09:09:14;16.10;99.90
15452;DHT22;7827;53.594;9.938;2022-10-16T09:11:58;16.10;99.90
15452;DHT22;7827;53.594;9.938;2022-10-16T09:14:40;16.20;99.90
15452;DHT22;7827;53.594;9.938;2022-10-16T09:17:32;16.20;99.90
15452;DHT22;7827;53.594;9.938;2022-10-16T09:20:19;16.30;99.90
15452;DHT22;7827;53.594;9.938;2022-10-16T09:23:08;16.50;99.90
15452;DHT22;7827;53.594;9.938;2022-10-16T09:25:44;16.60;99.90
15452;DHT22;7827;53.594;9.938;2022-10-16T09:28:16;16.70;99.90
15452;DHT22;7827;53.594;9.938;2022-10-16T09:30:46;16.80;99.90
15452;DHT22;7827;53.594;9.938;2022-10-16T09:33:18;16.80;99.90
15452;DHT22;7827;53.594;9.938;2022-10-16T09:35:50;16.80;99.90
15452;DHT22;7827;53.594;9.938;2022-10-16T09:38:22;16.80;99.90
15452;DHT22;7827;53.594;9.938;2022-10-16T09:40:53;16.80;99.90
15452;DHT22;7827;53.594;9.938;2022-10-16T09:43:34;16.90;99.90
15452;DHT22;7827;53.594;9.938;2022-10-16T09:46:08;17.00;99.90
15452;DHT22;7827;53.594;9.938;2022-10-16T09:48:50;17.00;99.90
15452;DHT22;7827;53.594;9.938;2022-10-16T09:51:23;17.10;99.90
15452;DHT22;7827;53.594;9.938;2022-10-16T09:53:58;17.20;99.90
15452;DHT22;7827;53.594;9.938;2022-10-16T09:56:29;17.30;99.90
15452;DHT22;7827;53.594;9.938;2022-10-16T09:59:08;17.30;99.90
15452;DHT22;7827;53.594;9.938;2022-10-16T10:01:41;17.40;99.90
15452;DHT22;7827;53.594;9.938;2022-10-16T10:04:11;17.40;99.90
15452;DHT22;7827;53.594;9.938;2022-10-16T10:06:44;17.50;99.90
15452;DHT22;7827;53.594;9.938;2022-10-16T10:09:17;17.50;99.90
15452;DHT22;7827;53.594;9.938;2022-10-16T10:11:51;17.50;99.90
15452;DHT22;7827;53.594;9.938;2022-10-16T10:14:40;17.40;99.90
15452;DHT22;7827;53.594;9.938;2022-10-16T10:17:17;17.40;99.90
15452;DHT22;7827;53.594;9.938;2022-10-16T10:19:50;17.40;99.90
15452;DHT22;7827;53.594;9.938;2022-10-16T10:22:26;17.40;99.90
15452;DHT22;7827;53.594;9.938;2022-10-16T10:25:12;17.50;99.90
15452;DHT22;7827;53.594;9.938;2022-10-16T10:27:55;17.50;99.90
15452;DHT22;7827;53.594;9.938;2022-10-16T10:30:38;17.70;99.90
15452;DHT22;7827;53.594;9.938;2022-10-16T10:33:19;17.60;99.90
15452;DHT22;7827;53.594;9.938;2022-10-16T10:35:58;17.70;99.90
15452;DHT22;7827;53.594;9.938;2022-10-16T10:38:41;17.60;99.90
15452;DHT22;7827;53.594;9.938;2022-10-16T10:41:29;17.60;99.90
15452;DHT22;7827;53.594;9.938;2022-10-16T10:44:20;17.60;99.90
15452;DHT22;7827;53.594;9.938;2022-10-16T10:47:06;17.60;99.90
15452;DHT22;7827;53.594;9.938;2022-10-16T10:49:53;17.60;99.90
15452;DHT22;7827;53.594;9.938;2022-10-16T10:52:48;17.60;99.90
15452;DHT22;7827;53.594;9.938;2022-10-16T10:55:29;17.70;99.90
15452;DHT22;7827;53.594;9.938;2022-10-16T10:58:15;17.80;99.90
15452;DHT22;7827;53.594;9.938;2022-10-16T11:01:09;17.90;99.90
15452;DHT22;7827;53.594;9.938;2022-10-16T11:04:05;17.90;99.90
15452;DHT22;7827;53.594;9.938;2022-10-16T11:06:50;18.00;99.90
15452;DHT22;7827;53.594;9.938;2022-10-16T11:09:25;18.00;99.90
15452;DHT22;7827;53.594;9.938;2022-10-16T11:12:01;18.10;99.90
15452;DHT22;7827;53.594;9.938;2022-10-16T11:14:40;18.10;99.90
15452;DHT22;7827;53.594;9.938;2022-10-16T11:17:15;18.20;99.90
15452;DHT22;7827;53.594;9.938;2022-10-16T11:19:53;18.20;99.90
15452;DHT22;7827;53.594;9.938;2022-10-16T11:22:30;18.30;99.90
15452;DHT22;7827;53.594;9.938;2022-10-16T11:25:05;18.30;99.90
15452;DHT22;7827;53.594;9.938;2022-10-16T11:27:43;18.30;99.90
15452;DHT22;7827;53.594;9.938;2022-10-16T11:30:18;18.40;99.90
15452;DHT22;7827;53.594;9.938;2022-10-16T11:32:57;18.40;99.90
15452;DHT22;7827;53.594;9.938;2022-10-16T11:35:39;18.50;99.90
15452;DHT22;7827;53.594;9.938;2022-10-16T11:38:18;18.40;99.90
15452;DHT22;7827;53.594;9.938;2022-10-16T11:41:00;18.40;99.90
15452;DHT22;7827;53.594;9.938;2022-10-16T11:43:39;18.30;99.90
15452;DHT22;7827;53.594;9.938;2022-10-16T11:46:15;18.20;99.90
15452;DHT22;7827;53.594;9.938;2022-10-16T11:48:50;18.00;99.90
15452;DHT22;7827;53.594;9.938;2022-10-16T11:51:31;18.10;99.90
15452;DHT22;7827;53.594;9.938;2022-10-16T11:54:08;18.00;99.90
15452;DHT22;7827;53.594;9.938;2022-10-16T11:56:50;18.00;99.90
15452;DHT22;7827;53.594;9.938;2022-10-16T11:59:29;18.10;99.90
15452;DHT22;7827;53.594;9.938;2022-10-16T12:02:25;18.20;99.90
15452;DHT22;7827;53.594;9.938;2022-10-16T12:05:06;18.30;99.90
15452;DHT22;7827;53.594;9.938;2022-10-16T12:07:50;18.40;99.90
15452;DHT22;7827;53.594;9.938;2022-10-16T12:10:27;18.40;99.90
15452;DHT22;7827;53.594;9.938;2022-10-16T12:12:58;18.40;99.90
15452;DHT22;7827;53.594;9.938;2022-10-16T12:15:28;18.40;99.90
15452;DHT22;7827;53.594;9.938;2022-10-16T12:18:21;18.30;99.90
15452;DHT22;7827;53.594;9.938;2022-10-16T12:20:55;18.30;99.90
15452;DHT22;7827;53.594;9.938;2022-10-16T12:23:28;18.30;99.90
15452;DHT22;7827;53.594;9.938;2022-10-16T12:25:57;18.30;99.90
15452;DHT22;7827;53.594;9.938;2022-10-16T12:28:28;18.20;99.90
15452;DHT22;7827;53.594;9.938;2022-10-16T12:30:59;18.20;99.90
15452;DHT22;7827;53.594;9.938;2022-10-16T12:33:30;18.20;99.90
15452;DHT22;7827;53.594;9.938;2022-10-16T12:36:01;18.20;99.90
15452;DHT22;7827;53.594;9.938;2022-10-16T12:38:37;18.10;99.90
15452;DHT22;7827;53.594;9.938;2022-10-16T12:41:24;18.10;99.90
15452;DHT22;7827;53.594;9.938;2022-10-16T12:43:54;18.10;99.90
15452;DHT22;7827;53.594;9.938;2022-10-16T12:46:33;18.10;99.90
15452;DHT22;7827;53.594;9.938;2022-10-16T12:49:14;18.20;99.90
15452;DHT22;7827;53.594;9.938;2022-10-16T12:51:57;18.10;99.90
15452;DHT22;7827;53.594;9.938;2022-10-16T12:54:28;18.00;99.90
15452;DHT22;7827;53.594;9.938;2022-10-16T12:57:10;18.00;99.90
15452;DHT22;7827;53.594;9.938;2022-10-16T12:59:58;17.80;99.90
15452;DHT22;7827;53.594;9.938;2022-10-16T13:03:18;17.80;99.90
15452;DHT22;7827;53.594;9.938;2022-10-16T13:06:22;18.00;99.90
15452;DHT22;7827;53.594;9.938;2022-10-16T13:09:08;18.00;99.90
15452;DHT22;7827;53.594;9.938;2022-10-16T13:12:05;18.10;99.90
15452;DHT22;7827;53.594;9.938;2022-10-16T13:14:56;18.10;99.90
15452;DHT22;7827;53.594;9.938;2022-10-16T13:17:43;18.20;99.90
15452;DHT22;7827;53.594;9.938;2022-10-16T13:20:22;18.20;99.90
15452;DHT22;7827;53.594;9.938;2022-10-16T13:23:05;18.20;99.90
15452;DHT22;7827;53.594;9.938;2022-10-16T13:25:51;18.20;99.90
15452;DHT22;7827;53.594;9.938;2022-10-16T13:28:32;18.10;99.90
15452;DHT22;7827;53.594;9.938;2022-10-16T13:31:02;18.20;99.90
15452;DHT22;7827;53.594;9.938;2022-10-16T13:33:34;18.20;99.90
15452;DHT22;7827;53.594;9.938;2022-10-16T13:36:04;18.20;99.90
15452;DHT22;7827;53.594;9.938;2022-10-16T13:38:35;18.30;99.90
15452;DHT22;7827;53.594;9.938;2022-10-16T13:41:11;18.20;99.90
15452;DHT22;7827;53.594;9.938;2022-10-16T13:43:45;18.20;99.90
15452;DHT22;7827;53.594;9.938;2022-10-16T13:46:19;18.10;99.90
15452;DHT22;7827;53.594;9.938;2022-10-16T13:48:56;18.20;99.90
15452;DHT22;7827;53.594;9.938;2022-10-16T13:51:26;18.10;99.90
15452;DHT22;7827;53.594;9.938;2022-10-16T13:53:56;18.10;99.90
15452;DHT22;7827;53.594;9.938;2022-10-16T13:56:27;18.10;99.90
15452;DHT22;7827;53.594;9.938;2022-10-16T13:59:02;18.10;99.90
15452;DHT22;7827;53.594;9.938;2022-10-16T14:01:33;18.00;99.90
15452;DHT22;7827;53.594;9.938;2022-10-16T14:04:05;17.90;99.90
15452;DHT22;7827;53.594;9.938;2022-10-16T14:06:36;17.90;99.90
15452;DHT22;7827;53.594;9.938;2022-10-16T14:09:12;17.90;99.90
15452;DHT22;7827;53.594;9.938;2022-10-16T14:11:48;17.80;99.90
15452;DHT22;7827;53.594;9.938;2022-10-16T14:14:19;17.70;99.90
15452;DHT22;7827;53.594;9.938;2022-10-16T14:16:48;17.60;99.90
15452;DHT22;7827;53.594;9.938;2022-10-16T14:19:20;17.60;99.90
15452;DHT22;7827;53.594;9.938;2022-10-16T14:21:51;17.60;99.90
15452;DHT22;7827;53.594;9.938;2022-10-16T14:24:26;17.50;99.90
15452;DHT22;7827;53.594;9.938;2022-10-16T14:27:28;17.50;99.90
15452;DHT22;7827;53.594;9.938;2022-10-16T14:30:13;17.60;99.90
15452;DHT22;7827;53.594;9.938;2022-10-16T14:32:54;17.70;99.90
15452;DHT22;7827;53.594;9.938;2022-10-16T14:35:28;17.80;99.90
15452;DHT22;7827;53.594;9.938;2022-10-16T14:38:00;17.90;99.90
15452;DHT22;7827;53.594;9.938;2022-10-16T14:40:31;17.80;99.90
15452;DHT22;7827;53.594;9.938;2022-10-16T14:43:02;17.80;99.90
15452;DHT22;7827;53.594;9.938;2022-10-16T14:45:34;17.80;99.90
15452;DHT22;7827;53.594;9.938;2022-10-16T14:48:05;17.70;99.90
15452;DHT22;7827;53.594;9.938;2022-10-16T14:50:46;17.60;99.90
15452;DHT22;7827;53.594;9.938;2022-10-16T14:53:14;17.50;99.90
15452;DHT22;7827;53.594;9.938;2022-10-16T14:55:43;17.50;99.90
15452;DHT22;7827;53.594;9.938;2022-10-16T14:58:15;17.40;99.90
15452;DHT22;7827;53.594;9.938;2022-10-16T15:00:47;17.40;99.90
15452;DHT22;7827;53.594;9.938;2022-10-16T15:03:15;17.50;99.90
15452;DHT22;7827;53.594;9.938;2022-10-16T15:05:44;17.50;99.90
15452;DHT22;7827;53.594;9.938;2022-10-16T15:08:12;17.50;99.90
15452;DHT22;7827;53.594;9.938;2022-10-16T15:10:42;17.40;99.90
15452;DHT22;7827;53.594;9.938;2022-10-16T15:13:12;17.40;99.90
15452;DHT22;7827;53.594;9.938;2022-10-16T15:15:42;17.30;99.90
15452;DHT22;7827;53.594;9.938;2022-10-16T15:18:13;17.30;99.90
15452;DHT22;7827;53.594;9.938;2022-10-16T15:20:48;17.20;99.90
15452;DHT22;7827;53.594;9.938;2022-10-16T15:23:19;17.20;99.90
15452;DHT22;7827;53.594;9.938;2022-10-16T15:25:50;17.20;99.90
15452;DHT22;7827;53.594;9.938;2022-10-16T15:28:20;17.10;99.90
15452;DHT22;7827;53.594;9.938;2022-10-16T15:30:51;17.10;99.90
15452;DHT22;7827;53.594;9.938;2022-10-16T15:33:23;17.10;99.90
15452;DHT22;7827;53.594;9.938;2022-10-16T15:35:54;17.10;99.90
15452;DHT22;7827;53.594;9.938;2022-10-16T15:38:27;17.10;99.90
15452;DHT22;7827;53.594;9.938;2022-10-16T15:40:55;17.00;99.90
15452;DHT22;7827;53.594;9.938;2022-10-16T15:43:24;17.00;99.90
15452;DHT22;7827;53.594;9.938;2022-10-16T15:45:59;16.90;99.90
15452;DHT22;7827;53.594;9.938;2022-10-16T15:48:30;16.80;99.90
15452;DHT22;7827;53.594;9.938;2022-10-16T15:50:59;16.70;99.90
15452;DHT22;7827;53.594;9.938;2022-10-16T15:53:27;16.80;99.90
15452;DHT22;7827;53.594;9.938;2022-10-16T15:55:56;16.80;99.90
15452;DHT22;7827;53.594;9.938;2022-10-16T15:58:24;16.70;99.90
15452;DHT22;7827;53.594;9.938;2022-10-16T16:00:55;16.60;99.90
15452;DHT22;7827;53.594;9.938;2022-10-16T16:03:24;16.60;99.90
15452;DHT22;7827;53.594;9.938;2022-10-16T16:05:53;16.60;99.90
15452;DHT22;7827;53.594;9.938;2022-10-16T16:08:22;16.50;99.90
15452;DHT22;7827;53.594;9.938;2022-10-16T16:11:09;16.50;99.90
15452;DHT22;7827;53.594;9.938;2022-10-16T16:13:39;16.50;99.90
15452;DHT22;7827;53.594;9.938;2022-10-16T16:16:10;16.40;99.90
15452;DHT22;7827;53.594;9.938;2022-10-16T16:18:40;16.30;99.90
15452;DHT22;7827;53.594;9.938;2022-10-16T16:21:11;16.30;99.90
15452;DHT22;7827;53.594;9.938;2022-10-16T16:23:40;16.20;99.90
15452;DHT22;7827;53.594;9.938;2022-10-16T16:26:11;16.10;99.90
15452;DHT22;7827;53.594;9.938;2022-10-16T16:28:43;16.10;99.90